createdAt,value
2019-06-27T00:02:25.930Z,29.63
2019-06-27T00:04:52.849Z,29.62
2019-06-27T00:07:19.702Z,29.58
2019-06-27T00:09:46.409Z,29.51
2019-06-27T00:12:13.125Z,29.46
2019-06-27T00:14:39.843Z,29.43
2019-06-27T00:17:06.894Z,29.44
2019-06-27T00:19:33.572Z,29.40
2019-06-27T00:22:00.285Z,29.37
2019-06-27T00:24:26.972Z,29.38
2019-06-27T00:26:57.370Z,29.27
2019-06-27T00:29:22.390Z,29.00
2019-06-27T00:31:49.109Z,28.82
2019-06-27T00:34:15.833Z,28.88
2019-06-27T00:36:42.546Z,28.58
2019-06-27T00:39:09.238Z,28.44
2019-06-27T00:41:35.929Z,28.47
2019-06-27T00:44:02.705Z,28.55
2019-06-27T00:46:29.385Z,28.53
2019-06-27T00:48:56.414Z,28.64
2019-06-27T00:51:23.179Z,28.69
2019-06-27T00:53:49.894Z,28.56
2019-06-27T00:56:16.605Z,28.49
2019-06-27T00:58:43.300Z,28.46
2019-06-27T01:01:10.977Z,28.49
2019-06-27T01:03:37.674Z,28.42
2019-06-27T01:06:04.797Z,28.26
2019-06-27T01:08:31.528Z,28.22
2019-06-27T01:10:58.240Z,28.24
2019-06-27T01:13:24.929Z,28.09
2019-06-27T01:15:51.642Z,28.03
2019-06-27T01:18:18.370Z,28.10
2019-06-27T01:20:45.095Z,28.06
2019-06-27T01:23:11.899Z,27.90
2019-06-27T01:25:38.623Z,27.97
2019-06-27T01:28:05.353Z,27.88
2019-06-27T01:30:32.017Z,27.86
2019-06-27T01:32:58.746Z,27.97
2019-06-27T01:35:25.495Z,27.87
2019-06-27T01:37:52.176Z,27.90
2019-06-27T01:40:18.991Z,27.81
2019-06-27T01:42:45.730Z,27.74
2019-06-27T01:45:18.568Z,27.72
2019-06-27T01:47:45.385Z,27.71
2019-06-27T01:50:14.469Z,27.57
2019-06-27T01:52:41.259Z,27.49
2019-06-27T01:55:08.182Z,27.45
2019-06-27T01:57:46.084Z,27.41
2019-06-27T02:00:04.073Z,27.34
2019-06-27T02:02:30.799Z,27.22
2019-06-27T02:04:57.486Z,27.08
2019-06-27T02:07:24.222Z,27.02
2019-06-27T02:09:51.016Z,27.06
2019-06-27T02:12:17.711Z,27.10
2019-06-27T02:14:44.463Z,27.06
2019-06-27T02:17:11.642Z,27.03
2019-06-27T02:19:38.633Z,27.11
2019-06-27T02:22:05.372Z,27.11
2019-06-27T02:24:32.079Z,27.03
2019-06-27T02:26:58.823Z,27.02
2019-06-27T02:29:25.580Z,27.04
2019-06-27T02:31:52.293Z,27.00
2019-06-27T02:34:19.022Z,26.89
2019-06-27T02:36:45.720Z,26.80
2019-06-27T02:39:12.439Z,26.76
2019-06-27T02:41:39.198Z,26.76
2019-06-27T02:44:05.876Z,26.68
2019-06-27T02:46:32.598Z,26.66
2019-06-27T02:48:59.298Z,26.67
2019-06-27T02:51:25.999Z,26.63
2019-06-27T02:53:52.737Z,26.72
2019-06-27T02:56:19.861Z,26.54
2019-06-27T02:58:46.588Z,26.24
2019-06-27T03:01:13.277Z,26.25
2019-06-27T03:03:39.966Z,26.42
2019-06-27T03:06:06.672Z,26.39
2019-06-27T03:08:33.368Z,26.39
2019-06-27T03:11:02.150Z,26.54
2019-06-27T03:13:28.872Z,26.60
2019-06-27T03:15:55.642Z,26.64
2019-06-27T03:18:23.071Z,26.64
2019-06-27T03:20:49.741Z,26.59
2019-06-27T03:23:16.492Z,26.45
2019-06-27T03:25:43.207Z,26.45
2019-06-27T03:28:09.927Z,26.41
2019-06-27T03:30:36.646Z,26.47
2019-06-27T03:33:03.381Z,26.41
2019-06-27T03:35:30.108Z,26.40
2019-06-27T03:37:57.109Z,26.40
2019-06-27T03:40:23.842Z,26.28
2019-06-27T03:42:50.567Z,26.04
2019-06-27T03:45:17.273Z,25.85
2019-06-27T03:47:44.202Z,25.85
2019-06-27T03:50:11.035Z,26.07
2019-06-27T03:52:37.758Z,26.18
2019-06-27T03:55:04.543Z,26.21
2019-06-27T03:57:31.591Z,26.16
2019-06-27T04:02:38.450Z,26.23
2019-06-27T04:05:05.591Z,25.93
2019-06-27T04:07:32.300Z,25.87
2019-06-27T04:09:59.020Z,25.92
2019-06-27T04:12:26.453Z,25.93
2019-06-27T04:14:53.180Z,25.86
2019-06-27T04:17:19.897Z,25.88
2019-06-27T04:19:46.626Z,25.94
2019-06-27T04:22:17.306Z,26.02
2019-06-27T04:24:41.984Z,26.03
2019-06-27T04:27:08.702Z,26.18
2019-06-27T04:29:35.446Z,26.22
2019-06-27T04:32:02.140Z,26.10
2019-06-27T04:34:28.846Z,26.08
2019-06-27T04:36:55.550Z,26.07
2019-06-27T04:39:22.259Z,26.06
2019-06-27T04:41:48.989Z,26.10
2019-06-27T04:44:15.723Z,26.19
2019-06-27T04:46:42.529Z,26.21
2019-06-27T04:49:13.555Z,26.35
2019-06-27T04:51:38.312Z,26.41
2019-06-27T04:54:05.043Z,26.35
2019-06-27T04:56:32.126Z,26.26
2019-06-27T04:58:58.831Z,26.33
2019-06-27T05:01:25.532Z,26.30
2019-06-27T05:03:53.539Z,26.29
2019-06-27T05:06:20.232Z,26.38
2019-06-27T05:08:46.964Z,26.83
2019-06-27T05:11:13.925Z,27.24
2019-06-27T05:13:40.666Z,27.55
2019-06-27T05:16:07.648Z,27.78
2019-06-27T05:18:34.370Z,27.89
2019-06-27T05:21:01.130Z,27.97
2019-06-27T05:23:27.943Z,28.07
2019-06-27T05:25:54.733Z,27.91
2019-06-27T05:28:21.454Z,27.53
2019-06-27T05:30:51.372Z,27.41
2019-06-27T05:33:16.804Z,27.27
2019-06-27T05:35:43.525Z,27.22
2019-06-27T05:38:10.409Z,27.26
2019-06-27T05:40:37.566Z,26.83
2019-06-27T05:43:04.449Z,26.89
2019-06-27T05:45:31.176Z,27.05
2019-06-27T05:47:57.898Z,27.02
2019-06-27T05:50:27.126Z,26.79
2019-06-27T05:52:53.844Z,26.87
2019-06-27T05:55:20.664Z,26.68
2019-06-27T05:57:47.392Z,26.87
2019-06-27T06:00:27.491Z,27.02
2019-06-27T06:02:43.262Z,27.17
2019-06-27T06:05:10.072Z,27.31
2019-06-27T06:07:36.796Z,27.15
2019-06-27T06:10:08.272Z,27.14
2019-06-27T06:12:38.282Z,27.19
2019-06-27T06:15:06.051Z,27.32
2019-06-27T06:17:32.771Z,27.35
2019-06-27T06:19:59.470Z,27.37
2019-06-27T06:22:26.537Z,27.44
2019-06-27T06:24:53.224Z,27.55
2019-06-27T06:27:20.075Z,27.60
2019-06-27T06:29:47.484Z,27.60
2019-06-27T06:32:14.182Z,27.67
2019-06-27T06:34:40.902Z,27.73
2019-06-27T06:37:08.230Z,27.85
2019-06-27T06:39:35.102Z,27.88
2019-06-27T06:42:01.849Z,27.92
2019-06-27T06:44:28.639Z,27.82
2019-06-27T06:46:55.499Z,27.78
2019-06-27T06:49:22.252Z,27.85
2019-06-27T06:51:49.010Z,28.05
2019-06-27T06:54:18.342Z,28.00
2019-06-27T06:56:45.255Z,28.01
2019-06-27T06:59:14.847Z,28.06
2019-06-27T07:01:45.481Z,27.81
2019-06-27T07:04:10.723Z,27.61
2019-06-27T07:06:37.555Z,27.71
2019-06-27T07:09:05.642Z,27.76
2019-06-27T07:11:33.421Z,27.64
2019-06-27T07:14:00.325Z,27.52
2019-06-27T07:16:27.711Z,27.83
2019-06-27T07:19:00.541Z,28.07
2019-06-27T07:21:27.689Z,28.34
2019-06-27T07:23:56.920Z,28.50
2019-06-27T07:26:25.414Z,28.57
2019-06-27T07:28:52.121Z,28.70
2019-06-27T07:31:19.128Z,28.81
2019-06-27T07:33:45.950Z,28.87
2019-06-27T07:36:12.871Z,29.06
2019-06-27T07:38:41.269Z,29.29
2019-06-27T07:41:08.646Z,29.29
2019-06-27T07:43:35.502Z,29.36
2019-06-27T07:46:02.232Z,29.37
2019-06-27T07:48:28.923Z,29.27
2019-06-27T07:50:55.621Z,29.17
2019-06-27T07:53:22.337Z,29.27
2019-06-27T07:55:50.757Z,29.48
2019-06-27T07:58:17.476Z,29.54
2019-06-27T08:00:44.387Z,29.57
2019-06-27T08:03:11.534Z,29.44
2019-06-27T08:05:41.083Z,29.57
2019-06-27T08:08:16.230Z,29.49
2019-06-27T08:10:44.465Z,29.66
2019-06-27T08:13:14.645Z,29.74
2019-06-27T08:15:46.077Z,29.83
2019-06-27T08:18:12.819Z,29.73
2019-06-27T08:20:39.880Z,29.51
2019-06-27T08:23:06.643Z,29.55
2019-06-27T08:25:33.358Z,29.30
2019-06-27T08:28:00.091Z,29.52
2019-06-27T08:30:26.811Z,29.79
2019-06-27T08:32:54.457Z,30.09
2019-06-27T08:35:21.631Z,30.29
2019-06-27T08:37:48.371Z,30.37
2019-06-27T08:40:15.087Z,30.12
2019-06-27T08:42:42.169Z,30.24
2019-06-27T08:45:08.902Z,30.37
2019-06-27T08:47:35.909Z,30.18
2019-06-27T08:50:04.867Z,30.15
2019-06-27T08:52:31.611Z,30.18
2019-06-27T08:54:58.320Z,29.79
2019-06-27T08:57:25.788Z,29.94
2019-06-27T08:59:54.008Z,30.31
2019-06-27T09:02:21.116Z,30.54
2019-06-27T09:04:48.314Z,30.69
2019-06-27T09:07:15.050Z,30.74
2019-06-27T09:09:43.783Z,30.83
2019-06-27T09:12:10.571Z,30.82
2019-06-27T09:14:39.581Z,30.93
2019-06-27T09:17:06.314Z,30.79
2019-06-27T09:19:33.089Z,31.00
2019-06-27T09:22:00.209Z,30.98
2019-06-27T09:24:27.050Z,30.70
2019-06-27T09:26:53.776Z,30.51
2019-06-27T09:29:20.864Z,30.68
2019-06-27T09:31:47.595Z,30.99
2019-06-27T09:34:14.349Z,30.99
2019-06-27T09:36:41.062Z,31.04
2019-06-27T09:39:08.267Z,31.28
2019-06-27T09:41:34.949Z,31.50
2019-06-27T09:44:03.465Z,31.56
2019-06-27T09:46:30.418Z,31.41
2019-06-27T09:48:57.144Z,31.17
2019-06-27T09:51:24.099Z,31.31
2019-06-27T09:53:51.119Z,31.23
2019-06-27T09:56:18.252Z,31.43
2019-06-27T09:58:45.035Z,31.52
2019-06-27T10:01:11.785Z,31.79
2019-06-27T10:03:38.523Z,31.91
2019-06-27T10:06:05.381Z,31.99
2019-06-27T10:08:32.667Z,31.39
2019-06-27T10:10:59.903Z,32.10
2019-06-27T10:13:27.060Z,32.12
2019-06-27T10:15:54.057Z,31.51
2019-06-27T10:18:22.541Z,31.77
2019-06-27T10:20:49.955Z,32.06
2019-06-27T10:23:18.717Z,32.20
2019-06-27T10:25:45.669Z,32.49
2019-06-27T10:28:12.382Z,32.60
2019-06-27T10:30:39.159Z,32.67
2019-06-27T10:33:05.920Z,32.65
2019-06-27T10:35:33.437Z,32.75
2019-06-27T10:38:00.127Z,32.79
2019-06-27T10:40:28.307Z,32.80
2019-06-27T10:42:56.134Z,32.82
2019-06-27T10:45:22.957Z,32.46
2019-06-27T10:47:49.747Z,32.43
2019-06-27T10:50:16.799Z,32.79
2019-06-27T10:52:43.522Z,32.97
2019-06-27T10:55:10.255Z,33.17
2019-06-27T10:57:37.377Z,33.11
2019-06-27T11:00:04.945Z,33.39
2019-06-27T11:02:32.612Z,33.39
2019-06-27T11:04:59.512Z,33.41
2019-06-27T11:07:27.055Z,33.42
2019-06-27T11:09:53.757Z,33.61
2019-06-27T11:12:20.544Z,33.76
2019-06-27T11:14:58.570Z,33.67
2019-06-27T11:17:20.404Z,33.73
2019-06-27T11:19:52.270Z,33.79
2019-06-27T11:22:16.572Z,33.96
2019-06-27T11:24:43.601Z,33.86
2019-06-27T11:27:10.535Z,33.87
2019-06-27T11:29:37.708Z,34.09
2019-06-27T11:32:07.662Z,34.21
2019-06-27T11:34:35.435Z,34.13
2019-06-27T11:37:02.959Z,34.01
2019-06-27T11:39:31.013Z,33.72
2019-06-27T11:41:57.962Z,33.57
2019-06-27T11:44:25.176Z,33.18
2019-06-27T11:46:54.559Z,33.14
2019-06-27T11:49:21.550Z,33.14
2019-06-27T11:51:48.611Z,33.20
2019-06-27T11:54:15.327Z,33.34
2019-06-27T11:56:42.325Z,33.76
2019-06-27T11:59:10.691Z,34.28
2019-06-27T12:01:37.783Z,34.27
2019-06-27T12:04:09.345Z,34.32
2019-06-27T12:06:36.339Z,34.39
2019-06-27T12:09:04.144Z,34.68
2019-06-27T12:11:30.883Z,34.58
2019-06-27T12:13:57.585Z,34.69
2019-06-27T12:16:24.318Z,34.79
2019-06-27T12:18:51.149Z,35.03
2019-06-27T12:21:17.864Z,35.20
2019-06-27T12:23:44.837Z,35.31
2019-06-27T12:26:13.865Z,35.45
2019-06-27T12:28:40.630Z,35.29
2019-06-27T12:31:20.142Z,35.23
2019-06-27T12:33:36.531Z,34.95
2019-06-27T12:36:03.679Z,34.74
2019-06-27T12:38:32.298Z,34.28
2019-06-27T12:41:02.275Z,34.48
2019-06-27T12:43:31.627Z,35.03
2019-06-27T12:45:58.353Z,35.45
2019-06-27T12:48:25.036Z,35.53
2019-06-27T12:50:54.162Z,35.57
2019-06-27T12:53:21.178Z,35.39
2019-06-27T12:55:48.232Z,35.36
2019-06-27T12:58:14.941Z,35.27
2019-06-27T13:00:42.488Z,35.75
2019-06-27T13:03:09.953Z,35.59
2019-06-27T13:05:44.663Z,35.17
2019-06-27T13:08:11.605Z,35.80
2019-06-27T13:10:38.725Z,36.34
2019-06-27T13:13:05.543Z,36.68
2019-06-27T13:15:32.439Z,36.94
2019-06-27T13:17:59.245Z,36.99
2019-06-27T13:20:26.011Z,37.04
2019-06-27T13:22:53.701Z,36.93
2019-06-27T13:25:20.421Z,36.74
2019-06-27T13:27:48.811Z,35.61
2019-06-27T13:30:15.850Z,36.18
2019-06-27T13:32:42.541Z,36.78
2019-06-27T13:35:09.295Z,36.84
2019-06-27T13:37:36.037Z,36.84
2019-06-27T13:40:04.739Z,37.40
2019-06-27T13:42:31.863Z,37.17
2019-06-27T13:45:10.939Z,36.90
2019-06-27T13:47:38.178Z,37.22
2019-06-27T13:50:07.584Z,37.26
2019-06-27T13:52:34.334Z,36.89
2019-06-27T13:55:01.065Z,37.22
2019-06-27T13:57:29.017Z,37.28
2019-06-27T13:59:57.640Z,37.28
2019-06-27T14:02:24.430Z,37.86
2019-06-27T14:04:57.050Z,37.30
2019-06-27T14:07:20.212Z,37.63
2019-06-27T14:09:55.423Z,38.20
2019-06-27T14:12:17.724Z,38.55
2019-06-27T14:14:58.724Z,38.12
2019-06-27T14:17:13.330Z,37.90
2019-06-27T14:19:46.015Z,37.77
2019-06-27T14:22:14.982Z,38.42
2019-06-27T14:24:42.973Z,38.83
2019-06-27T14:27:09.663Z,37.94
2019-06-27T14:29:36.633Z,37.98
2019-06-27T14:32:03.801Z,38.20
2019-06-27T14:34:30.958Z,38.65
2019-06-27T14:36:59.938Z,39.14
2019-06-27T14:39:27.909Z,39.36
2019-06-27T14:41:54.764Z,38.96
2019-06-27T14:44:21.496Z,39.25
2019-06-27T14:46:48.982Z,38.71
2019-06-27T14:49:25.165Z,38.10
2019-06-27T14:51:51.909Z,37.63
2019-06-27T14:54:18.621Z,38.09
2019-06-27T14:56:45.468Z,37.70
2019-06-27T14:59:14.433Z,38.89
2019-06-27T15:01:40.781Z,38.42
2019-06-27T15:04:07.496Z,37.92
2019-06-27T15:06:34.213Z,38.07
2019-06-27T15:09:02.570Z,37.67
2019-06-27T15:11:33.691Z,37.61
2019-06-27T15:14:00.573Z,37.81
2019-06-27T15:16:27.492Z,38.26
2019-06-27T15:18:54.519Z,38.39
2019-06-27T15:21:21.321Z,38.94
2019-06-27T15:23:47.991Z,38.86
2019-06-27T15:26:14.713Z,39.82
2019-06-27T15:28:41.463Z,40.70
2019-06-27T15:31:08.224Z,41.06
2019-06-27T15:33:35.193Z,40.41
2019-06-27T15:36:02.249Z,40.36
2019-06-27T15:38:31.347Z,39.83
2019-06-27T15:40:58.033Z,39.66
2019-06-27T15:43:24.756Z,39.35
2019-06-27T15:45:51.643Z,40.00
2019-06-27T15:48:18.375Z,40.04
2019-06-27T15:50:45.635Z,40.08
2019-06-27T15:53:14.319Z,39.92
2019-06-27T15:55:50.597Z,40.36
2019-06-27T15:58:17.329Z,40.62
2019-06-27T16:00:44.029Z,40.73
2019-06-27T16:03:10.741Z,39.77
2019-06-27T16:05:37.774Z,39.11
2019-06-27T16:08:04.555Z,38.81
2019-06-27T16:10:34.260Z,38.94
2019-06-27T16:13:02.840Z,39.33
2019-06-27T16:15:30.331Z,38.77
2019-06-27T16:17:59.323Z,38.38
2019-06-27T16:20:26.038Z,38.29
2019-06-27T16:22:52.792Z,38.24
2019-06-27T16:25:19.825Z,38.21
2019-06-27T16:27:46.555Z,39.22
2019-06-27T16:30:13.304Z,39.49
2019-06-27T16:32:40.766Z,38.29
2019-06-27T16:35:07.478Z,38.42
2019-06-27T16:37:34.209Z,38.66
2019-06-27T16:40:02.581Z,38.81
2019-06-27T16:42:29.497Z,39.06
2019-06-27T16:44:57.548Z,38.51
2019-06-27T16:47:24.412Z,38.38
2019-06-27T16:49:51.213Z,38.74
2019-06-27T16:52:18.054Z,38.40
2019-06-27T16:54:44.753Z,37.67
2019-06-27T16:57:11.525Z,38.49
2019-06-27T16:59:38.279Z,38.14
2019-06-27T17:02:07.116Z,38.12
2019-06-27T17:04:33.666Z,38.38
2019-06-27T17:07:00.526Z,38.43
2019-06-27T17:09:28.131Z,37.79
2019-06-27T17:11:54.820Z,37.76
2019-06-27T17:14:21.524Z,36.70
2019-06-27T17:16:48.306Z,36.56
2019-06-27T17:19:16.654Z,36.01
2019-06-27T17:21:43.375Z,35.69
2019-06-27T17:24:10.093Z,36.07
2019-06-27T17:26:38.970Z,36.09
2019-06-27T17:29:08.272Z,35.60
2019-06-27T17:31:35.008Z,35.66
2019-06-27T17:34:01.738Z,35.23
2019-06-27T17:36:28.461Z,34.91
2019-06-27T17:38:55.299Z,34.68
2019-06-27T17:41:22.114Z,34.37
2019-06-27T17:43:48.857Z,34.09
2019-06-27T17:46:15.592Z,33.98
2019-06-27T17:48:42.560Z,34.02
2019-06-27T17:51:09.282Z,33.99
2019-06-27T17:53:36.398Z,33.75
2019-06-27T17:56:03.156Z,33.82
2019-06-27T17:58:29.828Z,34.05
2019-06-27T18:00:56.600Z,34.09
2019-06-27T18:03:23.301Z,33.88
2019-06-27T18:05:50.355Z,33.65
2019-06-27T18:08:17.420Z,33.80
2019-06-27T18:10:44.143Z,33.72
2019-06-27T18:13:10.879Z,33.63
2019-06-27T18:15:37.610Z,33.62
2019-06-27T18:18:04.350Z,33.76
2019-06-27T18:20:31.144Z,33.68
2019-06-27T18:22:57.856Z,33.52
2019-06-27T18:25:24.632Z,33.27
2019-06-27T18:27:51.753Z,32.93
2019-06-27T18:30:18.466Z,32.68
2019-06-27T18:32:45.284Z,32.51
2019-06-27T18:35:12.058Z,32.47
2019-06-27T18:37:38.783Z,32.72
2019-06-27T18:40:05.868Z,32.58
2019-06-27T18:42:32.668Z,32.64
2019-06-27T18:44:59.775Z,32.76
2019-06-27T18:47:27.595Z,32.83
2019-06-27T18:49:54.429Z,32.43
2019-06-27T18:52:21.151Z,32.27
2019-06-27T18:54:49.287Z,32.01
2019-06-27T18:57:16.203Z,32.18
2019-06-27T18:59:42.936Z,32.01
2019-06-27T19:02:10.003Z,31.94
2019-06-27T19:04:36.743Z,31.94
2019-06-27T19:07:03.649Z,32.10
2019-06-27T19:09:30.728Z,31.63
2019-06-27T19:11:57.462Z,31.60
2019-06-27T19:14:24.208Z,31.49
2019-06-27T19:16:51.443Z,31.68
2019-06-27T19:19:21.392Z,31.47
2019-06-27T19:21:57.347Z,31.60
2019-06-27T19:24:32.131Z,31.78
2019-06-27T19:26:58.959Z,31.76
2019-06-27T19:29:27.032Z,31.50
2019-06-27T19:31:53.982Z,31.23
2019-06-27T19:34:20.690Z,31.32
2019-06-27T19:36:48.024Z,30.99
2019-06-27T19:39:17.306Z,30.81
2019-06-27T19:41:44.079Z,30.99
2019-06-27T19:44:10.804Z,31.16
2019-06-27T19:46:37.516Z,30.87
2019-06-27T19:49:04.233Z,30.51
2019-06-27T19:51:30.957Z,30.67
2019-06-27T19:53:58.177Z,30.50
2019-06-27T19:56:25.128Z,30.40
2019-06-27T19:58:58.348Z,30.28
2019-06-27T20:01:32.757Z,30.58
2019-06-27T20:04:01.493Z,30.79
2019-06-27T20:06:28.320Z,30.78
2019-06-27T20:08:55.047Z,30.58
2019-06-27T20:11:21.778Z,30.08
2019-06-27T20:13:51.357Z,29.92
2019-06-27T20:16:20.897Z,29.80
2019-06-27T20:18:51.174Z,29.60
2019-06-27T20:21:17.928Z,29.81
2019-06-27T20:23:44.693Z,29.72
2019-06-27T20:26:11.420Z,29.65
2019-06-27T20:28:38.230Z,29.99
2019-06-27T20:31:05.269Z,29.77
2019-06-27T20:33:31.950Z,29.44
2019-06-27T20:35:58.701Z,29.72
2019-06-27T20:38:34.981Z,29.93
2019-06-27T20:40:54.160Z,29.90
2019-06-27T20:43:20.930Z,29.90
2019-06-27T20:45:52.070Z,30.07
2019-06-27T20:48:18.805Z,30.18
2019-06-27T20:50:45.608Z,30.14
2019-06-27T20:53:16.374Z,30.03
2019-06-27T20:55:46.378Z,30.09
2019-06-27T20:58:13.111Z,30.17
2019-06-27T21:00:45.296Z,30.04
2019-06-27T21:03:12.028Z,30.01
2019-06-27T21:05:38.861Z,30.07
2019-06-27T21:08:05.621Z,30.04
2019-06-27T21:10:32.740Z,29.54
2019-06-27T21:12:59.592Z,29.51
2019-06-27T21:15:26.304Z,29.23
2019-06-27T21:17:53.082Z,29.43
2019-06-27T21:20:20.289Z,29.47
2019-06-27T21:22:47.476Z,29.24
2019-06-27T21:25:14.178Z,28.84
2019-06-27T21:27:40.856Z,28.71
2019-06-27T21:30:07.910Z,28.43
2019-06-27T21:32:35.179Z,28.35
2019-06-27T21:35:02.191Z,28.25
2019-06-27T21:37:28.939Z,28.25
2019-06-27T21:39:55.644Z,28.33
2019-06-27T21:42:22.340Z,28.36
2019-06-27T21:44:49.457Z,28.05
2019-06-27T21:47:16.126Z,28.06
2019-06-27T21:49:42.842Z,27.83
2019-06-27T21:52:09.680Z,27.55
2019-06-27T21:54:36.419Z,27.42
2019-06-27T21:57:03.227Z,27.45
2019-06-27T21:59:29.976Z,27.37
2019-06-27T22:01:56.879Z,27.50
2019-06-27T22:04:23.620Z,27.66
2019-06-27T22:06:50.348Z,27.55
2019-06-27T22:09:24.680Z,27.60
2019-06-27T22:11:45.674Z,27.47
2019-06-27T22:14:12.742Z,27.33
2019-06-27T22:16:39.777Z,27.44
2019-06-27T22:19:06.611Z,27.35
2019-06-27T22:21:33.376Z,27.22
2019-06-27T22:24:00.438Z,27.11
2019-06-27T22:26:27.182Z,26.93
2019-06-27T22:28:53.883Z,26.56
2019-06-27T22:31:20.592Z,26.40
2019-06-27T22:33:47.343Z,26.35
2019-06-27T22:36:14.115Z,26.46
2019-06-27T22:38:59.122Z,26.30
2019-06-27T22:41:44.318Z,25.92
2019-06-27T22:44:29.562Z,25.75
2019-06-27T22:47:14.655Z,25.78
2019-06-27T22:49:41.705Z,25.87
2019-06-27T22:52:22.707Z,25.88
2019-06-27T22:54:51.220Z,25.91
2019-06-27T22:57:17.932Z,25.95
2019-06-27T22:59:44.645Z,25.94
2019-06-27T23:02:11.391Z,25.91
2019-06-27T23:04:38.436Z,25.89
2019-06-27T23:07:05.252Z,25.85
2019-06-27T23:09:31.988Z,25.69
2019-06-27T23:11:58.702Z,25.63
2019-06-27T23:14:25.407Z,25.59
2019-06-27T23:16:52.130Z,25.73
2019-06-27T23:19:18.885Z,25.80
2019-06-27T23:21:45.593Z,25.73
2019-06-27T23:24:12.594Z,25.71
2019-06-27T23:26:39.312Z,25.64
2019-06-27T23:29:06.039Z,25.60
2019-06-27T23:31:32.741Z,25.22
2019-06-27T23:33:59.443Z,25.12
2019-06-27T23:36:26.261Z,25.01
2019-06-27T23:38:53.015Z,24.93
2019-06-27T23:41:19.738Z,24.88
2019-06-27T23:43:46.464Z,24.84
2019-06-27T23:46:31.685Z,24.72
2019-06-27T23:48:58.443Z,24.37
2019-06-27T23:51:25.139Z,24.24
2019-06-27T23:53:51.883Z,24.25
2019-06-27T23:56:19.033Z,24.29
2019-06-27T23:58:45.739Z,24.11
